sensor_id;sensor_type;location;lat;lon;timestamp;temperature;humidity
70851;DHT22;58475;49.662;9.636;2023-02-01T00:02:17;2.93;81.32
70851;DHT22;58475;49.662;9.636;2023-02-01T00:04:42;2.88;81.78
70851;DHT22;58475;49.662;9.636;2023-02-01T00:07:08;2.90;81.59
70851;DHT22;58475;49.662;9.636;2023-02-01T00:09:33;2.91;81.45
70851;DHT22;58475;49.662;9.636;2023-02-01T00:11:59;2.90;81.68
70851;DHT22;58475;49.662;9.636;2023-02-01T00:14:27;2.83;81.91
70851;DHT22;58475;49.662;9.636;2023-02-01T00:16:52;2.87;81.65
70851;DHT22;58475;49.662;9.636;2023-02-01T00:19:18;2.97;80.88
70851;DHT22;58475;49.662;9.636;2023-02-01T00:21:43;2.91;81.44
70851;DHT22;58475;49.662;9.636;2023-02-01T00:24:11;2.93;81.29
70851;DHT22;58475;49.662;9.636;2023-02-01T00:26:39;3.00;80.85
70851;DHT22;58475;49.662;9.636;2023-02-01T00:29:08;3.01;80.64
70851;DHT22;58475;49.662;9.636;2023-02-01T00:31:35;3.00;80.39
70851;DHT22;58475;49.662;9.636;2023-02-01T00:34:00;3.03;80.11
70851;DHT22;58475;49.662;9.636;2023-02-01T00:36:26;3.14;79.39
70851;DHT22;58475;49.662;9.636;2023-02-01T00:38:51;3.05;79.88
70851;DHT22;58475;49.662;9.636;2023-02-01T00:41:18;3.11;79.39
70851;DHT22;58475;49.662;9.636;2023-02-01T00:43:44;3.07;79.57
70851;DHT22;58475;49.662;9.636;2023-02-01T00:46:11;3.21;78.81
70851;DHT22;58475;49.662;9.636;2023-02-01T00:48:37;3.11;79.18
70851;DHT22;58475;49.662;9.636;2023-02-01T00:51:06;2.97;79.88
70851;DHT22;58475;49.662;9.636;2023-02-01T00:53:32;3.04;79.27
70851;DHT22;58475;49.662;9.636;2023-02-01T00:55:58;3.03;79.33
70851;DHT22;58475;49.662;9.636;2023-02-01T00:58:24;3.07;79.22
70851;DHT22;58475;49.662;9.636;2023-02-01T01:03:29;3.12;78.98
70851;DHT22;58475;49.662;9.636;2023-02-01T01:05:59;3.09;79.01
70851;DHT22;58475;49.662;9.636;2023-02-01T01:08:25;2.87;80.87
70851;DHT22;58475;49.662;9.636;2023-02-01T01:10:51;2.68;83.31
70851;DHT22;58475;49.662;9.636;2023-02-01T01:13:16;2.43;85.77
70851;DHT22;58475;49.662;9.636;2023-02-01T01:15:41;2.40;86.54
70851;DHT22;58475;49.662;9.636;2023-02-01T01:18:08;2.19;88.24
70851;DHT22;58475;49.662;9.636;2023-02-01T01:20:35;2.16;88.68
70851;DHT22;58475;49.662;9.636;2023-02-01T01:23:01;1.99;90.79
70851;DHT22;58475;49.662;9.636;2023-02-01T01:25:27;1.97;90.67
70851;DHT22;58475;49.662;9.636;2023-02-01T01:27:52;1.84;91.90
70851;DHT22;58475;49.662;9.636;2023-02-01T01:30:18;1.75;92.44
70851;DHT22;58475;49.662;9.636;2023-02-01T01:32:43;1.68;92.68
70851;DHT22;58475;49.662;9.636;2023-02-01T01:35:10;1.67;92.85
70851;DHT22;58475;49.662;9.636;2023-02-01T01:37:35;1.61;92.84
70851;DHT22;58475;49.662;9.636;2023-02-01T01:40:05;1.65;92.80
70851;DHT22;58475;49.662;9.636;2023-02-01T01:42:37;1.73;92.37
70851;DHT22;58475;49.662;9.636;2023-02-01T01:45:20;1.70;92.66
70851;DHT22;58475;49.662;9.636;2023-02-01T01:47:50;1.84;91.73
70851;DHT22;58475;49.662;9.636;2023-02-01T01:50:21;1.82;92.05
70851;DHT22;58475;49.662;9.636;2023-02-01T01:52:49;1.95;91.45
70851;DHT22;58475;49.662;9.636;2023-02-01T01:55:18;1.84;91.94
70851;DHT22;58475;49.662;9.636;2023-02-01T01:57:50;1.94;91.48
70851;DHT22;58475;49.662;9.636;2023-02-01T02:00:18;1.86;91.68
70851;DHT22;58475;49.662;9.636;2023-02-01T02:02:57;1.84;92.06
70851;DHT22;58475;49.662;9.636;2023-02-01T02:05:24;1.97;91.73
70851;DHT22;58475;49.662;9.636;2023-02-01T02:07:52;1.88;92.18
70851;DHT22;58475;49.662;9.636;2023-02-01T02:10:19;1.94;92.12
70851;DHT22;58475;49.662;9.636;2023-02-01T02:12:46;1.91;92.28
70851;DHT22;58475;49.662;9.636;2023-02-01T02:15:14;1.94;92.42
70851;DHT22;58475;49.662;9.636;2023-02-01T02:23:09;1.99;92.51
70851;DHT22;58475;49.662;9.636;2023-02-01T02:26:00;1.99;92.53
70851;DHT22;58475;49.662;9.636;2023-02-01T02:32:04;1.99;92.88
70851;DHT22;58475;49.662;9.636;2023-02-01T02:35:04;2.01;92.82
70851;DHT22;58475;49.662;9.636;2023-02-01T02:37:43;1.98;92.87
70851;DHT22;58475;49.662;9.636;2023-02-01T02:40:25;1.95;93.34
70851;DHT22;58475;49.662;9.636;2023-02-01T02:43:07;2.01;92.93
70851;DHT22;58475;49.662;9.636;2023-02-01T02:46:03;2.04;92.95
70851;DHT22;58475;49.662;9.636;2023-02-01T02:48:55;2.01;92.91
70851;DHT22;58475;49.662;9.636;2023-02-01T02:54:17;2.02;92.70
70851;DHT22;58475;49.662;9.636;2023-02-01T02:57:04;2.02;92.94
70851;DHT22;58475;49.662;9.636;2023-02-01T02:59:50;1.99;93.10
70851;DHT22;58475;49.662;9.636;2023-02-01T03:02:36;2.12;92.49
70851;DHT22;58475;49.662;9.636;2023-02-01T03:05:21;2.01;92.77
70851;DHT22;58475;49.662;9.636;2023-02-01T03:13:28;2.11;92.58
70851;DHT22;58475;49.662;9.636;2023-02-01T03:21:52;2.16;92.40
70851;DHT22;58475;49.662;9.636;2023-02-01T03:24:41;2.26;91.89
70851;DHT22;58475;49.662;9.636;2023-02-01T03:27:39;2.19;92.26
70851;DHT22;58475;49.662;9.636;2023-02-01T03:32:47;2.29;91.49
70851;DHT22;58475;49.662;9.636;2023-02-01T03:35:46;2.40;90.98
70851;DHT22;58475;49.662;9.636;2023-02-01T03:38:20;2.36;90.94
70851;DHT22;58475;49.662;9.636;2023-02-01T03:40:52;2.43;90.69
70851;DHT22;58475;49.662;9.636;2023-02-01T03:43:19;2.46;90.76
70851;DHT22;58475;49.662;9.636;2023-02-01T03:45:50;2.49;90.38
70851;DHT22;58475;49.662;9.636;2023-02-01T03:48:18;2.57;89.79
70851;DHT22;58475;49.662;9.636;2023-02-01T03:50:49;2.54;89.95
70851;DHT22;58475;49.662;9.636;2023-02-01T03:53:18;2.60;89.82
70851;DHT22;58475;49.662;9.636;2023-02-01T03:55:45;2.67;89.23
70851;DHT22;58475;49.662;9.636;2023-02-01T03:58:14;2.64;89.36
70851;DHT22;58475;49.662;9.636;2023-02-01T04:00:44;2.63;89.26
70851;DHT22;58475;49.662;9.636;2023-02-01T04:03:10;2.54;89.88
70851;DHT22;58475;49.662;9.636;2023-02-01T04:05:36;2.65;89.08
70851;DHT22;58475;49.662;9.636;2023-02-01T04:08:04;2.68;89.01
70851;DHT22;58475;49.662;9.636;2023-02-01T04:10:30;2.57;89.31
70851;DHT22;58475;49.662;9.636;2023-02-01T04:12:56;2.56;89.50
70851;DHT22;58475;49.662;9.636;2023-02-01T04:15:21;2.56;89.37
70851;DHT22;58475;49.662;9.636;2023-02-01T04:17:46;2.79;88.31
70851;DHT22;58475;49.662;9.636;2023-02-01T04:20:12;2.76;88.34
70851;DHT22;58475;49.662;9.636;2023-02-01T04:22:37;2.61;88.98
70851;DHT22;58475;49.662;9.636;2023-02-01T04:25:03;2.65;88.71
70851;DHT22;58475;49.662;9.636;2023-02-01T04:27:31;2.73;87.95
70851;DHT22;58475;49.662;9.636;2023-02-01T04:29:56;2.65;88.44
70851;DHT22;58475;49.662;9.636;2023-02-01T04:32:22;2.64;88.41
70851;DHT22;58475;49.662;9.636;2023-02-01T04:34:47;2.72;88.31
70851;DHT22;58475;49.662;9.636;2023-02-01T04:37:12;2.68;88.02
70851;DHT22;58475;49.662;9.636;2023-02-01T04:39:38;2.64;88.14
70851;DHT22;58475;49.662;9.636;2023-02-01T04:42:03;2.76;87.46
70851;DHT22;58475;49.662;9.636;2023-02-01T04:44:29;2.68;88.28
70851;DHT22;58475;49.662;9.636;2023-02-01T04:46:54;2.74;87.75
70851;DHT22;58475;49.662;9.636;2023-02-01T04:49:20;2.73;87.92
70851;DHT22;58475;49.662;9.636;2023-02-01T04:51:46;2.72;87.84
70851;DHT22;58475;49.662;9.636;2023-02-01T04:54:11;2.77;87.57
70851;DHT22;58475;49.662;9.636;2023-02-01T04:56:37;2.84;86.84
70851;DHT22;58475;49.662;9.636;2023-02-01T04:59:03;2.81;86.85
70851;DHT22;58475;49.662;9.636;2023-02-01T05:01:29;2.83;86.97
70851;DHT22;58475;49.662;9.636;2023-02-01T05:03:55;2.84;86.71
70851;DHT22;58475;49.662;9.636;2023-02-01T05:06:21;2.73;87.19
70851;DHT22;58475;49.662;9.636;2023-02-01T05:08:47;2.88;86.30
70851;DHT22;58475;49.662;9.636;2023-02-01T05:11:12;2.91;85.93
70851;DHT22;58475;49.662;9.636;2023-02-01T05:13:58;2.93;86.00
70851;DHT22;58475;49.662;9.636;2023-02-01T05:16:24;2.81;86.51
70851;DHT22;58475;49.662;9.636;2023-02-01T05:18:49;2.90;86.09
70851;DHT22;58475;49.662;9.636;2023-02-01T05:21:15;2.84;86.41
70851;DHT22;58475;49.662;9.636;2023-02-01T05:23:40;2.84;86.12
70851;DHT22;58475;49.662;9.636;2023-02-01T05:26:24;2.88;86.18
70851;DHT22;58475;49.662;9.636;2023-02-01T05:28:50;3.03;84.90
70851;DHT22;58475;49.662;9.636;2023-02-01T05:31:16;2.98;85.38
70851;DHT22;58475;49.662;9.636;2023-02-01T05:33:41;2.91;85.93
70851;DHT22;58475;49.662;9.636;2023-02-01T05:36:07;3.05;85.00
70851;DHT22;58475;49.662;9.636;2023-02-01T05:38:32;2.95;85.54
70851;DHT22;58475;49.662;9.636;2023-02-01T05:40:58;2.95;85.07
70851;DHT22;58475;49.662;9.636;2023-02-01T05:43:24;2.87;85.81
70851;DHT22;58475;49.662;9.636;2023-02-01T05:45:52;2.94;85.34
70851;DHT22;58475;49.662;9.636;2023-02-01T05:48:17;2.84;86.09
70851;DHT22;58475;49.662;9.636;2023-02-01T05:50:43;2.90;85.43
70851;DHT22;58475;49.662;9.636;2023-02-01T05:53:09;2.95;85.05
70851;DHT22;58475;49.662;9.636;2023-02-01T05:55:34;2.93;85.27
70851;DHT22;58475;49.662;9.636;2023-02-01T05:57:59;2.81;85.83
70851;DHT22;58475;49.662;9.636;2023-02-01T06:00:25;2.91;84.85
70851;DHT22;58475;49.662;9.636;2023-02-01T06:02:51;2.94;84.70
70851;DHT22;58475;49.662;9.636;2023-02-01T06:05:16;2.88;84.95
70851;DHT22;58475;49.662;9.636;2023-02-01T06:07:42;2.97;84.57
70851;DHT22;58475;49.662;9.636;2023-02-01T06:10:08;2.84;85.26
70851;DHT22;58475;49.662;9.636;2023-02-01T06:12:34;2.91;84.84
70851;DHT22;58475;49.662;9.636;2023-02-01T06:14:59;2.68;86.20
70851;DHT22;58475;49.662;9.636;2023-02-01T06:17:25;2.81;85.69
70851;DHT22;58475;49.662;9.636;2023-02-01T06:19:50;2.77;85.57
70851;DHT22;58475;49.662;9.636;2023-02-01T06:22:16;2.85;85.23
70851;DHT22;58475;49.662;9.636;2023-02-01T06:24:42;2.83;85.57
70851;DHT22;58475;49.662;9.636;2023-02-01T06:27:08;2.80;85.83
70851;DHT22;58475;49.662;9.636;2023-02-01T06:29:34;2.76;85.95
70851;DHT22;58475;49.662;9.636;2023-02-01T06:32:00;2.79;85.80
70851;DHT22;58475;49.662;9.636;2023-02-01T06:34:25;2.72;86.25
70851;DHT22;58475;49.662;9.636;2023-02-01T06:36:51;2.83;85.45
70851;DHT22;58475;49.662;9.636;2023-02-01T06:39:16;2.87;84.97
70851;DHT22;58475;49.662;9.636;2023-02-01T06:41:45;2.90;84.97
70851;DHT22;58475;49.662;9.636;2023-02-01T06:44:11;2.87;84.96
70851;DHT22;58475;49.662;9.636;2023-02-01T06:46:36;2.93;84.20
70851;DHT22;58475;49.662;9.636;2023-02-01T06:49:02;3.01;83.93
70851;DHT22;58475;49.662;9.636;2023-02-01T06:51:27;2.98;84.01
70851;DHT22;58475;49.662;9.636;2023-02-01T06:53:54;2.94;84.83
70851;DHT22;58475;49.662;9.636;2023-02-01T06:56:20;3.04;84.13
70851;DHT22;58475;49.662;9.636;2023-02-01T06:58:46;3.04;83.94
70851;DHT22;58475;49.662;9.636;2023-02-01T07:01:11;2.95;84.49
70851;DHT22;58475;49.662;9.636;2023-02-01T07:03:37;2.88;84.78
70851;DHT22;58475;49.662;9.636;2023-02-01T07:06:04;2.93;84.43
70851;DHT22;58475;49.662;9.636;2023-02-01T07:08:35;2.94;84.18
70851;DHT22;58475;49.662;9.636;2023-02-01T07:11:05;3.08;83.34
70851;DHT22;58475;49.662;9.636;2023-02-01T07:13:31;2.97;83.86
70851;DHT22;58475;49.662;9.636;2023-02-01T07:16:05;2.95;84.09
70851;DHT22;58475;49.662;9.636;2023-02-01T07:18:31;2.94;84.25
70851;DHT22;58475;49.662;9.636;2023-02-01T07:20:56;2.98;83.89
70851;DHT22;58475;49.662;9.636;2023-02-01T07:23:22;3.03;83.86
70851;DHT22;58475;49.662;9.636;2023-02-01T07:25:48;3.00;84.25
70851;DHT22;58475;49.662;9.636;2023-02-01T07:28:14;2.98;84.45
70851;DHT22;58475;49.662;9.636;2023-02-01T07:30:39;3.05;83.97
70851;DHT22;58475;49.662;9.636;2023-02-01T07:33:06;3.03;83.95
70851;DHT22;58475;49.662;9.636;2023-02-01T07:35:32;3.05;83.99
70851;DHT22;58475;49.662;9.636;2023-02-01T07:37:58;3.08;83.58
70851;DHT22;58475;49.662;9.636;2023-02-01T07:40:24;2.97;84.32
70851;DHT22;58475;49.662;9.636;2023-02-01T07:42:56;3.07;83.50
70851;DHT22;58475;49.662;9.636;2023-02-01T07:45:23;3.07;83.82
70851;DHT22;58475;49.662;9.636;2023-02-01T07:47:48;2.97;84.10
70851;DHT22;58475;49.662;9.636;2023-02-01T07:50:14;3.01;83.92
70851;DHT22;58475;49.662;9.636;2023-02-01T07:52:40;3.03;83.60
70851;DHT22;58475;49.662;9.636;2023-02-01T07:55:06;3.09;83.14
70851;DHT22;58475;49.662;9.636;2023-02-01T07:57:32;3.11;82.92
70851;DHT22;58475;49.662;9.636;2023-02-01T07:59:57;3.08;83.33
70851;DHT22;58475;49.662;9.636;2023-02-01T08:02:41;3.08;83.28
70851;DHT22;58475;49.662;9.636;2023-02-01T08:05:07;3.04;83.45
70851;DHT22;58475;49.662;9.636;2023-02-01T08:07:32;3.12;82.96
70851;DHT22;58475;49.662;9.636;2023-02-01T08:09:58;3.08;83.16
70851;DHT22;58475;49.662;9.636;2023-02-01T08:12:25;3.04;83.12
70851;DHT22;58475;49.662;9.636;2023-02-01T08:14:50;3.14;82.40
70851;DHT22;58475;49.662;9.636;2023-02-01T08:17:16;3.15;81.99
70851;DHT22;58475;49.662;9.636;2023-02-01T08:19:41;3.18;81.84
70851;DHT22;58475;49.662;9.636;2023-02-01T08:22:06;3.14;82.20
70851;DHT22;58475;49.662;9.636;2023-02-01T08:24:33;3.14;82.41
70851;DHT22;58475;49.662;9.636;2023-02-01T08:27:01;3.25;81.44
70851;DHT22;58475;49.662;9.636;2023-02-01T08:29:27;3.18;81.97
70851;DHT22;58475;49.662;9.636;2023-02-01T08:31:53;3.25;81.37
70851;DHT22;58475;49.662;9.636;2023-02-01T08:34:19;3.18;81.94
70851;DHT22;58475;49.662;9.636;2023-02-01T08:36:44;3.19;81.99
70851;DHT22;58475;49.662;9.636;2023-02-01T08:39:10;3.33;80.55
70851;DHT22;58475;49.662;9.636;2023-02-01T08:41:36;3.26;81.23
70851;DHT22;58475;49.662;9.636;2023-02-01T08:44:02;3.25;81.22
70851;DHT22;58475;49.662;9.636;2023-02-01T08:46:27;3.22;81.44
70851;DHT22;58475;49.662;9.636;2023-02-01T08:48:53;3.22;81.47
70851;DHT22;58475;49.662;9.636;2023-02-01T08:51:20;3.25;81.50
70851;DHT22;58475;49.662;9.636;2023-02-01T08:53:46;3.22;81.46
70851;DHT22;58475;49.662;9.636;2023-02-01T08:56:14;3.32;81.00
70851;DHT22;58475;49.662;9.636;2023-02-01T08:58:40;3.36;80.58
70851;DHT22;58475;49.662;9.636;2023-02-01T09:01:09;3.39;80.64
70851;DHT22;58475;49.662;9.636;2023-02-01T09:03:35;3.49;79.79
70851;DHT22;58475;49.662;9.636;2023-02-01T09:06:03;3.55;79.46
70851;DHT22;58475;49.662;9.636;2023-02-01T09:08:29;3.62;79.91
70851;DHT22;58475;49.662;9.636;2023-02-01T09:11:02;3.67;79.75
70851;DHT22;58475;49.662;9.636;2023-02-01T09:13:28;3.73;79.45
70851;DHT22;58475;49.662;9.636;2023-02-01T09:15:53;3.82;79.04
70851;DHT22;58475;49.662;9.636;2023-02-01T09:18:19;3.82;79.70
70851;DHT22;58475;49.662;9.636;2023-02-01T09:20:44;3.82;79.07
70851;DHT22;58475;49.662;9.636;2023-02-01T09:23:10;3.73;79.55
70851;DHT22;58475;49.662;9.636;2023-02-01T09:25:37;3.73;79.30
70851;DHT22;58475;49.662;9.636;2023-02-01T09:28:02;3.74;79.24
70851;DHT22;58475;49.662;9.636;2023-02-01T09:30:34;3.73;79.12
70851;DHT22;58475;49.662;9.636;2023-02-01T09:33:00;3.76;78.73
70851;DHT22;58475;49.662;9.636;2023-02-01T09:35:25;3.86;78.08
70851;DHT22;58475;49.662;9.636;2023-02-01T09:37:52;3.93;78.00
70851;DHT22;58475;49.662;9.636;2023-02-01T09:40:18;3.95;78.17
70851;DHT22;58475;49.662;9.636;2023-02-01T09:42:58;4.08;77.29
70851;DHT22;58475;49.662;9.636;2023-02-01T09:47:57;4.21;77.12
70851;DHT22;58475;49.662;9.636;2023-02-01T09:50:34;4.28;78.11
70851;DHT22;58475;49.662;9.636;2023-02-01T09:53:27;4.32;77.49
70851;DHT22;58475;49.662;9.636;2023-02-01T09:56:00;4.35;76.79
70851;DHT22;58475;49.662;9.636;2023-02-01T10:01:00;4.40;76.60
70851;DHT22;58475;49.662;9.636;2023-02-01T10:03:30;4.41;77.33
70851;DHT22;58475;49.662;9.636;2023-02-01T10:22:23;4.44;76.67
70851;DHT22;58475;49.662;9.636;2023-02-01T10:25:03;4.44;76.91
70851;DHT22;58475;49.662;9.636;2023-02-01T10:27:34;4.38;77.17
70851;DHT22;58475;49.662;9.636;2023-02-01T10:30:46;4.52;76.94
70851;DHT22;58475;49.662;9.636;2023-02-01T10:33:19;4.37;77.81
70851;DHT22;58475;49.662;9.636;2023-02-01T10:35:53;4.38;77.12
70851;DHT22;58475;49.662;9.636;2023-02-01T10:38:25;4.37;76.62
70851;DHT22;58475;49.662;9.636;2023-02-01T10:40:53;4.34;77.07
70851;DHT22;58475;49.662;9.636;2023-02-01T10:43:20;4.35;76.57
70851;DHT22;58475;49.662;9.636;2023-02-01T10:45:46;4.35;76.03
70851;DHT22;58475;49.662;9.636;2023-02-01T10:48:12;4.38;76.70
70851;DHT22;58475;49.662;9.636;2023-02-01T10:50:43;4.41;75.54
70851;DHT22;58475;49.662;9.636;2023-02-01T10:53:29;4.40;75.97
70851;DHT22;58475;49.662;9.636;2023-02-01T10:55:56;4.38;76.57
70851;DHT22;58475;49.662;9.636;2023-02-01T10:58:32;4.40;76.28
70851;DHT22;58475;49.662;9.636;2023-02-01T11:01:01;4.38;76.35
70851;DHT22;58475;49.662;9.636;2023-02-01T11:05:59;4.41;76.27
70851;DHT22;58475;49.662;9.636;2023-02-01T11:08:25;4.48;76.48
70851;DHT22;58475;49.662;9.636;2023-02-01T11:11:08;4.62;76.39
70851;DHT22;58475;49.662;9.636;2023-02-01T11:13:38;4.59;75.94
70851;DHT22;58475;49.662;9.636;2023-02-01T11:16:04;4.58;76.57
70851;DHT22;58475;49.662;9.636;2023-02-01T11:21:41;4.52;77.21
70851;DHT22;58475;49.662;9.636;2023-02-01T11:24:22;4.55;76.70
70851;DHT22;58475;49.662;9.636;2023-02-01T11:26:49;4.55;76.11
70851;DHT22;58475;49.662;9.636;2023-02-01T11:29:17;4.46;75.74
70851;DHT22;58475;49.662;9.636;2023-02-01T11:31:45;4.44;75.62
70851;DHT22;58475;49.662;9.636;2023-02-01T11:34:17;4.40;76.64
70851;DHT22;58475;49.662;9.636;2023-02-01T11:36:45;4.54;76.29
70851;DHT22;58475;49.662;9.636;2023-02-01T11:44:41;4.58;76.58
70851;DHT22;58475;49.662;9.636;2023-02-01T11:47:21;4.48;77.15
70851;DHT22;58475;49.662;9.636;2023-02-01T11:49:48;4.38;76.29
70851;DHT22;58475;49.662;9.636;2023-02-01T12:00:57;4.21;77.54
70851;DHT22;58475;49.662;9.636;2023-02-01T12:06:07;4.24;77.12
70851;DHT22;58475;49.662;9.636;2023-02-01T12:16:35;4.18;77.66
70851;DHT22;58475;49.662;9.636;2023-02-01T12:35:47;4.14;78.20
70851;DHT22;58475;49.662;9.636;2023-02-01T12:38:20;4.13;78.24
70851;DHT22;58475;49.662;9.636;2023-02-01T12:43:49;4.05;79.31
70851;DHT22;58475;49.662;9.636;2023-02-01T12:46:37;4.03;78.23
70851;DHT22;58475;49.662;9.636;2023-02-01T12:51:36;4.00;77.71
70851;DHT22;58475;49.662;9.636;2023-02-01T12:54:13;3.95;78.25
70851;DHT22;58475;49.662;9.636;2023-02-01T12:56:44;3.89;78.12
70851;DHT22;58475;49.662;9.636;2023-02-01T12:59:27;3.84;77.89
70851;DHT22;58475;49.662;9.636;2023-02-01T13:05:04;3.76;78.11
70851;DHT22;58475;49.662;9.636;2023-02-01T13:07:41;3.79;77.82
70851;DHT22;58475;49.662;9.636;2023-02-01T13:10:16;3.80;77.54
70851;DHT22;58475;49.662;9.636;2023-02-01T13:12:50;3.80;77.25
70851;DHT22;58475;49.662;9.636;2023-02-01T13:15:22;3.77;77.89
70851;DHT22;58475;49.662;9.636;2023-02-01T13:17:51;3.73;77.85
70851;DHT22;58475;49.662;9.636;2023-02-01T13:25:51;3.79;76.89
70851;DHT22;58475;49.662;9.636;2023-02-01T13:28:47;3.80;76.71
70851;DHT22;58475;49.662;9.636;2023-02-01T13:34:16;3.87;76.12
70851;DHT22;58475;49.662;9.636;2023-02-01T13:42:26;3.97;75.94
70851;DHT22;58475;49.662;9.636;2023-02-01T13:45:19;3.87;76.86
70851;DHT22;58475;49.662;9.636;2023-02-01T13:47:47;3.91;76.75
70851;DHT22;58475;49.662;9.636;2023-02-01T13:52:58;3.84;77.72
70851;DHT22;58475;49.662;9.636;2023-02-01T13:55:28;3.79;77.88
70851;DHT22;58475;49.662;9.636;2023-02-01T13:58:05;3.83;77.83
70851;DHT22;58475;49.662;9.636;2023-02-01T14:00:32;3.77;78.64
70851;DHT22;58475;49.662;9.636;2023-02-01T14:08:10;3.80;79.23
70851;DHT22;58475;49.662;9.636;2023-02-01T14:10:54;3.79;79.22
70851;DHT22;58475;49.662;9.636;2023-02-01T14:13:38;3.79;79.36
70851;DHT22;58475;49.662;9.636;2023-02-01T14:21:28;3.82;79.71
70851;DHT22;58475;49.662;9.636;2023-02-01T14:23:58;3.77;80.15
70851;DHT22;58475;49.662;9.636;2023-02-01T14:26:26;3.79;79.81
70851;DHT22;58475;49.662;9.636;2023-02-01T14:29:02;3.79;79.99
70851;DHT22;58475;49.662;9.636;2023-02-01T14:31:33;3.87;79.40
70851;DHT22;58475;49.662;9.636;2023-02-01T14:34:03;3.82;79.95
70851;DHT22;58475;49.662;9.636;2023-02-01T14:36:44;3.83;79.76
70851;DHT22;58475;49.662;9.636;2023-02-01T14:39:26;3.87;79.20
70851;DHT22;58475;49.662;9.636;2023-02-01T14:41:55;3.82;79.72
70851;DHT22;58475;49.662;9.636;2023-02-01T14:44:33;3.86;79.33
70851;DHT22;58475;49.662;9.636;2023-02-01T14:47:32;3.87;78.90
70851;DHT22;58475;49.662;9.636;2023-02-01T14:55:38;3.84;78.74
70851;DHT22;58475;49.662;9.636;2023-02-01T14:58:09;3.80;79.24
70851;DHT22;58475;49.662;9.636;2023-02-01T15:00:47;3.82;78.19
70851;DHT22;58475;49.662;9.636;2023-02-01T15:06:56;3.79;77.32
70851;DHT22;58475;49.662;9.636;2023-02-01T15:09:29;3.79;77.85
70851;DHT22;58475;49.662;9.636;2023-02-01T15:14:25;3.73;77.58
70851;DHT22;58475;49.662;9.636;2023-02-01T15:16:50;3.77;76.79
70851;DHT22;58475;49.662;9.636;2023-02-01T15:19:21;3.67;77.72
70851;DHT22;58475;49.662;9.636;2023-02-01T15:21:49;3.66;77.46
70851;DHT22;58475;49.662;9.636;2023-02-01T15:24:26;3.67;77.38
70851;DHT22;58475;49.662;9.636;2023-02-01T15:26:53;3.67;77.35
70851;DHT22;58475;49.662;9.636;2023-02-01T15:29:21;3.66;77.59
70851;DHT22;58475;49.662;9.636;2023-02-01T15:31:49;3.63;77.86
70851;DHT22;58475;49.662;9.636;2023-02-01T15:34:15;3.55;78.70
70851;DHT22;58475;49.662;9.636;2023-02-01T15:36:41;3.69;77.83
70851;DHT22;58475;49.662;9.636;2023-02-01T15:41:49;3.56;78.66
70851;DHT22;58475;49.662;9.636;2023-02-01T15:44:28;3.51;79.38
70851;DHT22;58475;49.662;9.636;2023-02-01T15:46:54;3.42;80.14
70851;DHT22;58475;49.662;9.636;2023-02-01T15:51:51;3.35;80.18
70851;DHT22;58475;49.662;9.636;2023-02-01T15:54:23;3.33;80.82
70851;DHT22;58475;49.662;9.636;2023-02-01T15:56:53;3.16;81.68
70851;DHT22;58475;49.662;9.636;2023-02-01T16:02:36;2.74;85.17
70851;DHT22;58475;49.662;9.636;2023-02-01T16:05:04;2.84;85.42
70851;DHT22;58475;49.662;9.636;2023-02-01T16:07:32;2.74;86.25
70851;DHT22;58475;49.662;9.636;2023-02-01T16:10:00;2.79;86.30
70851;DHT22;58475;49.662;9.636;2023-02-01T16:12:34;2.88;85.92
70851;DHT22;58475;49.662;9.636;2023-02-01T16:15:04;2.88;85.70
70851;DHT22;58475;49.662;9.636;2023-02-01T16:17:29;2.80;86.77
70851;DHT22;58475;49.662;9.636;2023-02-01T16:19:55;2.90;85.40
70851;DHT22;58475;49.662;9.636;2023-02-01T16:22:20;2.80;86.00
70851;DHT22;58475;49.662;9.636;2023-02-01T16:24:46;2.85;85.39
70851;DHT22;58475;49.662;9.636;2023-02-01T16:27:11;2.87;85.00
70851;DHT22;58475;49.662;9.636;2023-02-01T16:29:36;2.80;85.28
70851;DHT22;58475;49.662;9.636;2023-02-01T16:32:02;2.84;84.90
70851;DHT22;58475;49.662;9.636;2023-02-01T16:34:28;2.84;84.11
70851;DHT22;58475;49.662;9.636;2023-02-01T16:36:54;2.93;83.16
70851;DHT22;58475;49.662;9.636;2023-02-01T16:39:22;2.88;83.65
70851;DHT22;58475;49.662;9.636;2023-02-01T16:41:48;2.81;83.75
70851;DHT22;58475;49.662;9.636;2023-02-01T16:44:13;2.84;83.54
70851;DHT22;58475;49.662;9.636;2023-02-01T16:46:40;3.03;81.85
70851;DHT22;58475;49.662;9.636;2023-02-01T16:49:17;3.00;82.05
70851;DHT22;58475;49.662;9.636;2023-02-01T16:51:43;3.00;82.31
70851;DHT22;58475;49.662;9.636;2023-02-01T16:54:10;3.05;81.78
70851;DHT22;58475;49.662;9.636;2023-02-01T16:56:35;3.07;81.28
70851;DHT22;58475;49.662;9.636;2023-02-01T16:59:02;3.01;81.46
70851;DHT22;58475;49.662;9.636;2023-02-01T17:01:28;3.04;81.51
70851;DHT22;58475;49.662;9.636;2023-02-01T17:03:53;3.03;81.21
70851;DHT22;58475;49.662;9.636;2023-02-01T17:06:21;3.01;81.36
70851;DHT22;58475;49.662;9.636;2023-02-01T17:08:51;3.03;81.31
70851;DHT22;58475;49.662;9.636;2023-02-01T17:11:16;3.14;80.35
70851;DHT22;58475;49.662;9.636;2023-02-01T17:13:43;3.22;79.71
70851;DHT22;58475;49.662;9.636;2023-02-01T17:16:22;3.16;80.00
70851;DHT22;58475;49.662;9.636;2023-02-01T17:18:58;3.22;79.58
70851;DHT22;58475;49.662;9.636;2023-02-01T17:21:27;3.21;79.50
70851;DHT22;58475;49.662;9.636;2023-02-01T17:23:52;3.39;78.19
70851;DHT22;58475;49.662;9.636;2023-02-01T17:26:18;3.28;78.26
70851;DHT22;58475;49.662;9.636;2023-02-01T17:28:44;3.40;77.42
70851;DHT22;58475;49.662;9.636;2023-02-01T17:31:13;3.49;76.80
70851;DHT22;58475;49.662;9.636;2023-02-01T17:33:40;3.45;76.79
70851;DHT22;58475;49.662;9.636;2023-02-01T17:36:06;3.51;76.17
70851;DHT22;58475;49.662;9.636;2023-02-01T17:38:32;3.28;77.83
70851;DHT22;58475;49.662;9.636;2023-02-01T17:40:59;3.55;75.48
70851;DHT22;58475;49.662;9.636;2023-02-01T17:43:25;3.45;76.37
70851;DHT22;58475;49.662;9.636;2023-02-01T17:48:22;3.45;76.13
70851;DHT22;58475;49.662;9.636;2023-02-01T17:50:49;3.39;76.82
70851;DHT22;58475;49.662;9.636;2023-02-01T17:53:24;3.52;75.77
70851;DHT22;58475;49.662;9.636;2023-02-01T17:55:50;3.52;75.92
70851;DHT22;58475;49.662;9.636;2023-02-01T17:58:17;3.52;75.48
70851;DHT22;58475;49.662;9.636;2023-02-01T18:00:44;3.52;75.73
70851;DHT22;58475;49.662;9.636;2023-02-01T18:03:29;3.62;75.19
70851;DHT22;58475;49.662;9.636;2023-02-01T18:05:55;3.53;75.34
70851;DHT22;58475;49.662;9.636;2023-02-01T18:08:26;3.60;75.02
70851;DHT22;58475;49.662;9.636;2023-02-01T18:10:54;3.60;74.51
70851;DHT22;58475;49.662;9.636;2023-02-01T18:13:20;3.64;74.85
70851;DHT22;58475;49.662;9.636;2023-02-01T18:15:46;3.55;75.10
70851;DHT22;58475;49.662;9.636;2023-02-01T18:18:12;3.60;74.72
70851;DHT22;58475;49.662;9.636;2023-02-01T18:20:39;3.56;75.15
70851;DHT22;58475;49.662;9.636;2023-02-01T18:23:07;3.56;74.86
70851;DHT22;58475;49.662;9.636;2023-02-01T18:25:34;3.60;74.79
70851;DHT22;58475;49.662;9.636;2023-02-01T18:28:09;3.69;74.23
70851;DHT22;58475;49.662;9.636;2023-02-01T18:30:35;3.72;73.58
70851;DHT22;58475;49.662;9.636;2023-02-01T18:33:00;3.60;74.62
70851;DHT22;58475;49.662;9.636;2023-02-01T18:35:28;3.59;74.32